Terminal Aerodrome Forecast
Issued by NWS Boston, MA

Current Version | Previous Version | Text Only | Print | Product List | Glossary On
Versions: 1 2 3 4 5 6 7 8 9 10 11 12 13 14 15 16 17 18 19 20 21 22 23 24 25 26 27 28 29
000 FTUS41 KBOX 261723 TAFBOS TAF KBOS 261723Z 2618/2724 28012KT P6SM FEW050 FM261900 29008KT P6SM SCT050 FM270500 32004KT P6SM FEW250 FM271500 05005KT P6SM FEW250=

USA.gov is the U.S. government's official web portal to all federal, state and local government web resources and services.